Estación Meteorológica Peña el Pijo (Robertgarden) [ 11/20/18 00:31:13 CET ]

Fecha Hora Presion(HPa) Temp (°C) Humedad % Rocio (°C) Viento ( m/s) Direccion Lluvia 1Hora(mm) Lluvia 24H(mm) LLuvia Total(mm)
2018-Nov-14 01:01:36 1013.700 8.9 87 6.9         102.04
2018-Nov-14 02:01:44 1013.600 8.3 88 6.4         102.04
2018-Nov-14 03:01:43 1013.300 8.2 89 6.5         102.04
2018-Nov-14 04:03:09 1282.800 8.1 89 6.4         102.04
2018-Nov-14 05:01:55 1012.600 8.4 90 6.9         102.04
2018-Nov-14 06:01:52 1012.400 8.6 90 7.1         102.04
2018-Nov-14 07:01:56 1012.300 8.8 90 7.3     0.51 0.51 102.56
2018-Nov-14 08:01:46 1012.400 8.8 91 7.4       0.51 102.56
2018-Nov-14 09:01:49 1012.200 8.9 91 7.5     1.55 2.07 104.11
2018-Nov-14 10:02:05 1012.300 9.4 91 8.0       2.07 104.11
2018-Nov-14 11:01:35 1012.200 9.8 91 8.4     1.55 3.62 105.67
2018-Nov-14 12:01:36 1011.400 9.9 91 8.5     0.51 4.14 106.19
2018-Nov-14 13:02:10 1010.500 10.8 92 9.5     0.51 4.66 106.70
2018-Nov-14 14:01:42 1010.000 10.7 91 9.3       4.66 106.70
2018-Nov-14 15:01:43 1009.700 10.9 91 9.5       4.66 106.70
2018-Nov-14 16:01:50 1009.500 11.2 90 9.6       4.66 106.70
2018-Nov-14 17:01:46 1009.200 11.1 89 9.3       4.66 106.70
2018-Nov-14 18:01:47 1009.000 10.4 88 8.5       4.66 106.70
2018-Nov-14 19:01:50 1009.300 10.8 88 8.9       4.66 106.70
2018-Nov-14 20:01:38 1009.300 10.8 87 8.7       4.66 106.70
2018-Nov-14 21:01:44 1009.200 10.9 86 8.6       4.66 106.70
2018-Nov-14 22:01:50 1009.100 10.9 86 8.6       4.66 106.70
2018-Nov-14 23:01:42 1008.900 10.9 86 8.6       4.66 106.70

Temperatura Máxima:11°    Temperatura Mínima:
Presión Máxima:1282.800 Hpa    Presión Mínima:1008.900 Hpa


Volver